Time;durP1;ratioP1;P1;durP2;ratioP2;P2;SDS_P1;SDS_P2;PMS_P1;PMS_P2;Temp;Humidity;BMP_temperature;BMP_pressure;BME280_temperature;BME280_humidity;BME280_pressure;Samples;Min_cycle;Max_cycle;Signal;HPM_P1;HPM_P2
2021/08/20 00:03:21;;;;;;;7.15;2.63;;;;;;;15.88;76.90;101273.84;10178000;28;20093;-67
2021/08/20 00:08:18;;;;;;;10.48;3.38;;;;;;;15.83;76.70;101275.97;10194397;28;20463;-66
2021/08/20 00:13:15;;;;;;;10.15;2.70;;;;;;;15.86;76.57;101267.06;10169913;28;20046;-67
2021/08/20 00:18:12;;;;;;;11.68;3.20;;;;;;;15.84;76.79;101266.59;10195281;28;20076;-67
2021/08/20 00:23:09;;;;;;;8.20;2.58;;;;;;;15.84;77.00;101269.34;10199141;28;20120;-67
2021/08/20 00:28:05;;;;;;;9.50;2.90;;;;;;;15.82;77.25;101263.34;10174682;28;20076;-67
2021/08/20 00:33:02;;;;;;;7.57;2.90;;;;;;;15.85;77.30;101263.50;10196438;28;20100;-67
2021/08/20 00:37:58;;;;;;;8.88;3.13;;;;;;;15.83;77.29;101264.94;10163716;28;20045;-67
2021/08/20 00:42:55;;;;;;;8.95;3.47;;;;;;;15.70;77.24;101267.69;10177536;28;20412;-67
2021/08/20 00:47:51;;;;;;;10.23;4.40;;;;;;;15.66;77.70;101263.94;10195469;28;20046;-67
2021/08/20 00:52:48;;;;;;;10.25;3.60;;;;;;;15.59;77.41;101263.69;10159887;28;20133;-66
2021/08/20 00:57:48;;;;;;;9.90;3.72;;;;;;;15.57;77.55;101269.56;10179266;28;20046;-67
2021/08/20 01:02:46;;;;;;;9.18;4.07;;;;;;;15.51;77.56;101264.59;10198170;28;20045;-66
2021/08/20 01:07:42;;;;;;;14.48;3.80;;;;;;;15.47;77.82;101269.97;10172399;28;20054;-67
2021/08/20 01:12:41;;;;;;;14.05;5.25;;;;;;;15.42;78.00;101266.63;10195442;28;20108;-66
2021/08/20 01:17:37;;;;;;;8.25;4.28;;;;;;;15.42;77.89;101267.44;10174324;28;20084;-66
2021/08/20 01:22:34;;;;;;;11.13;4.20;;;;;;;15.43;78.31;101270.97;10193362;28;20054;-66
2021/08/20 01:27:33;;;;;;;8.57;3.65;;;;;;;15.39;77.89;101273.63;10167814;28;20120;-66
2021/08/20 01:32:29;;;;;;;9.70;4.15;;;;;;;15.42;77.97;101277.66;10191236;28;20526;-67
2021/08/20 01:37:26;;;;;;;10.15;4.53;;;;;;;15.40;77.89;101266.94;10195316;28;20424;-66
2021/08/20 01:42:23;;;;;;;10.32;4.70;;;;;;;15.39;77.84;101262.59;10184997;28;20133;-67
2021/08/20 01:47:19;;;;;;;12.75;4.35;;;;;;;15.36;77.88;101258.56;10190232;28;20070;-67
2021/08/20 01:52:15;;;;;;;13.27;4.80;;;;;;;15.40;78.12;101257.88;10168467;28;20046;-66
2021/08/20 01:57:12;;;;;;;10.70;4.60;;;;;;;15.38;78.47;101243.63;10179902;28;20468;-67
2021/08/20 02:02:08;;;;;;;10.38;4.75;;;;;;;15.37;78.40;101237.31;10184202;28;20495;-68
2021/08/20 02:07:05;;;;;;;8.82;4.63;;;;;;;15.36;78.41;101242.03;10175856;28;20579;-67
2021/08/20 02:12:02;;;;;;;9.23;4.22;;;;;;;15.38;78.20;101246.38;10180728;28;20133;-67
2021/08/20 02:16:58;;;;;;;9.75;4.65;;;;;;;15.39;78.48;101256.25;10193949;28;20535;-67
2021/08/20 02:21:54;;;;;;;12.10;4.57;;;;;;;15.36;78.78;101258.56;10195204;28;20125;-68
2021/08/20 02:26:51;;;;;;;12.77;4.93;;;;;;;15.29;79.62;101263.81;10192310;28;20046;-66
2021/08/20 02:31:48;;;;;;;12.35;5.00;;;;;;;15.19;81.07;101264.19;10194276;28;20053;-67
2021/08/20 02:36:44;;;;;;;10.52;5.03;;;;;;;15.14;81.62;101261.66;10184640;28;20057;-66
2021/08/20 02:41:41;;;;;;;13.25;5.85;;;;;;;15.17;81.79;101249.97;10188757;28;20074;-66
2021/08/20 02:46:38;;;;;;;15.07;6.22;;;;;;;15.11;82.51;101259.59;10183804;28;20463;-66
2021/08/20 02:51:35;;;;;;;15.15;6.05;;;;;;;15.08;83.03;101258.28;10181751;28;20073;-66
2021/08/20 02:56:31;;;;;;;12.07;6.38;;;;;;;14.89;84.54;101255.97;10182324;28;20053;-66
2021/08/20 03:01:28;;;;;;;11.20;6.45;;;;;;;14.87;84.95;101257.47;10181095;28;20074;-66
2021/08/20 03:06:24;;;;;;;13.60;6.35;;;;;;;14.85;85.08;101255.06;10181144;28;20140;-66
2021/08/20 03:11:21;;;;;;;14.20;6.70;;;;;;;14.83;85.25;101257.34;10178302;28;20084;-66
2021/08/20 03:16:17;;;;;;;14.32;5.90;;;;;;;14.84;85.94;101253.44;10193769;28;20120;-66
2021/08/20 03:21:14;;;;;;;13.20;6.88;;;;;;;14.87;86.04;101252.75;10179981;28;20141;-66
2021/08/20 03:26:10;;;;;;;15.05;6.45;;;;;;;14.89;86.11;101250.47;10199014;28;20116;-66
2021/08/20 03:31:07;;;;;;;13.95;6.53;;;;;;;14.92;85.58;101251.75;10169241;28;20088;-66
2021/08/20 03:36:03;;;;;;;15.45;7.25;;;;;;;14.94;85.87;101247.56;10189078;28;20121;-67
2021/08/20 03:41:00;;;;;;;14.52;7.15;;;;;;;14.92;86.39;101249.00;10201318;28;20523;-66
2021/08/20 03:45:56;;;;;;;11.95;6.07;;;;;;;14.92;86.65;101246.25;10176406;28;20077;-67
2021/08/20 03:50:53;;;;;;;11.98;6.95;;;;;;;14.91;86.56;101248.19;10201221;28;20129;-66
2021/08/20 03:55:49;;;;;;;14.02;6.78;;;;;;;14.92;86.53;101238.00;10184161;28;20481;-66
2021/08/20 04:00:51;;;;;;;12.93;6.85;;;;;;;14.90;86.46;101252.09;10165059;28;20046;-66
2021/08/20 04:05:49;;;;;;;14.23;5.90;;;;;;;14.85;86.68;101238.53;10182286;28;20049;-66
2021/08/20 04:10:46;;;;;;;9.18;5.82;;;;;;;14.86;86.62;101251.16;10174243;28;20047;-66
2021/08/20 04:15:43;;;;;;;13.25;6.57;;;;;;;14.87;86.94;101252.75;10164355;28;20081;-66
2021/08/20 04:20:39;;;;;;;15.15;6.63;;;;;;;14.86;87.22;101256.66;10163425;28;20054;-66
2021/08/20 04:25:36;;;;;;;15.05;7.32;;;;;;;14.89;87.43;101255.97;10185119;28;20534;-66
2021/08/20 04:30:32;;;;;;;13.15;7.72;;;;;;;14.90;87.84;101270.59;10194517;28;20066;-66
2021/08/20 04:35:29;;;;;;;16.23;8.48;;;;;;;14.86;88.31;101278.69;10195989;28;20066;-66
2021/08/20 04:40:26;;;;;;;23.90;8.77;;;;;;;14.90;88.23;101276.88;10198520;28;20057;-66
2021/08/20 04:45:22;;;;;;;16.08;9.23;;;;;;;14.78;88.10;101282.28;10197210;28;20452;-66
2021/08/20 04:50:20;;;;;;;16.38;8.68;;;;;;;14.80;88.50;101280.00;10191146;28;20050;-66
2021/08/20 04:55:16;;;;;;;14.13;7.85;;;;;;;14.80;88.15;101288.25;10188025;28;20081;-66
2021/08/20 05:00:13;;;;;;;13.88;8.38;;;;;;;14.80;88.06;101291.00;10187677;28;20104;-65
2021/08/20 05:05:11;;;;;;;13.20;7.47;;;;;;;14.86;88.29;101284.19;10185230;28;20129;-66
2021/08/20 05:10:11;;;;;;;12.32;7.43;;;;;;;14.88;87.83;101287.41;10174917;28;20109;-65
2021/08/20 05:15:09;;;;;;;14.48;8.02;;;;;;;14.89;87.61;101299.22;10183635;28;20081;-65
2021/08/20 05:20:06;;;;;;;15.90;8.55;;;;;;;14.88;87.49;101298.44;10194354;28;20077;-66
2021/08/20 05:25:03;;;;;;;14.45;8.20;;;;;;;14.86;87.32;101294.41;10196328;28;20551;-66
2021/08/20 05:29:59;;;;;;;16.70;8.57;;;;;;;14.91;87.45;101306.03;10191856;28;20073;-65
2021/08/20 05:34:56;;;;;;;16.65;9.30;;;;;;;14.96;88.01;101305.03;10196095;28;20058;-65
2021/08/20 05:39:52;;;;;;;15.95;9.45;;;;;;;14.98;87.54;101318.47;10181736;28;20493;-65
2021/08/20 05:44:49;;;;;;;18.25;11.38;;;;;;;15.02;87.91;101308.41;10180939;28;20042;-66
2021/08/20 05:49:45;;;;;;;20.52;13.95;;;;;;;15.01;87.62;101306.78;10174689;28;20120;-66
2021/08/20 05:54:42;;;;;;;20.20;12.70;;;;;;;15.05;87.79;101307.72;10194555;28;20073;-65
2021/08/20 05:59:38;;;;;;;10.50;6.30;;;;;;;15.04;87.25;101311.59;10195870;28;20042;-65
2021/08/20 06:04:36;;;;;;;8.73;5.00;;;;;;;15.10;86.91;101321.28;10181588;28;20073;-65
2021/08/20 06:09:33;;;;;;;7.43;3.33;;;;;;;15.14;86.48;101327.75;10195570;28;20512;-65
2021/08/20 06:14:29;;;;;;;7.88;4.22;;;;;;;15.13;85.76;101317.88;10175212;28;20515;-66
2021/08/20 06:19:26;;;;;;;9.60;5.07;;;;;;;15.16;86.25;101325.47;10195522;28;20081;-66
2021/08/20 06:24:22;;;;;;;9.98;5.13;;;;;;;15.21;86.47;101319.78;10173463;28;20138;-65
2021/08/20 06:29:20;;;;;;;9.68;4.40;;;;;;;15.26;86.82;101314.06;10193034;28;20500;-65
2021/08/20 06:34:17;;;;;;;7.00;4.13;;;;;;;15.24;86.43;101321.03;10164711;28;20496;-65
2021/08/20 06:39:13;;;;;;;10.05;5.35;;;;;;;15.27;86.35;101326.69;10190535;28;20072;-65
2021/08/20 06:44:10;;;;;;;21.20;5.43;;;;;;;15.27;86.77;101326.69;10194293;28;20042;-66
2021/08/20 06:49:07;;;;;;;6.70;4.00;;;;;;;15.24;86.93;101321.84;10186442;28;20460;-65
2021/08/20 06:54:04;;;;;;;7.55;3.83;;;;;;;15.25;86.71;101345.50;10194308;28;20100;-65
2021/08/20 06:59:00;;;;;;;7.13;3.55;;;;;;;15.26;86.79;101351.81;10190768;28;20523;-65
2021/08/20 07:03:58;;;;;;;7.53;3.78;;;;;;;15.23;87.04;101352.50;10201524;28;20473;-65
2021/08/20 07:08:55;;;;;;;9.77;4.68;;;;;;;15.25;86.60;101353.78;10188343;28;20049;-66
2021/08/20 07:13:52;;;;;;;11.00;5.25;;;;;;;15.25;86.76;101367.56;10201339;28;20080;-65
2021/08/20 07:18:49;;;;;;;11.98;6.63;;;;;;;15.26;87.03;101358.13;10161716;28;20046;-65
2021/08/20 07:23:45;;;;;;;12.32;7.72;;;;;;;15.31;87.08;101355.19;10200400;28;20046;-66
2021/08/20 07:28:42;;;;;;;7.95;6.03;;;;;;;15.31;87.37;101366.19;10168198;28;20073;-65
2021/08/20 07:33:38;;;;;;;10.95;5.47;;;;;;;15.34;87.18;101364.75;10196594;28;20465;-66
2021/08/20 07:38:35;;;;;;;10.18;5.63;;;;;;;15.36;87.25;101360.50;10196429;28;20062;-65
2021/08/20 07:43:31;;;;;;;9.55;7.30;;;;;;;15.42;87.43;101354.81;10186875;28;20080;-65
2021/08/20 07:48:27;;;;;;;9.70;5.80;;;;;;;15.38;87.71;101376.69;10200715;28;20049;-65
2021/08/20 07:53:24;;;;;;;6.95;2.72;;;;;;;15.36;87.75;101377.03;10181125;28;20038;-65
2021/08/20 07:58:21;;;;;;;6.45;3.08;;;;;;;15.31;87.59;101377.22;10200120;28;20050;-65
2021/08/20 08:03:17;;;;;;;6.30;3.72;;;;;;;15.35;87.88;101383.69;10174075;28;20038;-65
2021/08/20 08:08:14;;;;;;;5.43;3.50;;;;;;;15.37;88.20;101375.09;10199613;28;20080;-65
2021/08/20 08:13:11;;;;;;;5.70;3.63;;;;;;;15.49;88.70;101374.34;10198272;28;20041;-65
2021/08/20 08:18:07;;;;;;;5.95;3.10;;;;;;;15.44;88.45;101380.06;10177992;28;20053;-65
2021/08/20 08:23:03;;;;;;;8.25;5.35;;;;;;;15.41;88.27;101391.75;10184482;28;20042;-66
2021/08/20 08:28:00;;;;;;;10.05;4.72;;;;;;;15.34;88.41;101398.59;10181155;28;20046;-64
2021/08/20 08:32:58;;;;;;;9.02;5.93;;;;;;;15.36;88.91;101390.81;10182178;28;20088;-66
2021/08/20 08:38:12;;;;;;;7.28;5.18;;;;;;;15.46;89.17;101384.09;10180075;28;20072;-65
2021/08/20 08:43:09;;;;;;;8.23;6.05;;;;;;;15.54;88.91;101391.50;10181514;28;20042;-66
2021/08/20 08:48:11;;;;;;;7.60;5.30;;;;;;;15.64;88.87;101390.31;10197183;28;20547;-65
2021/08/20 08:53:08;;;;;;;10.02;6.22;;;;;;;15.77;88.72;101392.00;10197663;28;20112;-66
2021/08/20 08:58:12;;;;;;;9.60;6.93;;;;;;;15.98;88.41;101389.22;10182989;28;20061;-65
2021/08/20 09:03:29;;;;;;;12.15;7.50;;;;;;;16.15;88.11;101402.06;10195879;28;20073;-66
2021/08/20 09:08:27;;;;;;;10.75;7.90;;;;;;;16.14;88.22;101407.91;10196000;28;20055;-67
2021/08/20 09:13:24;;;;;;;13.75;8.02;;;;;;;16.10;87.82;101413.28;10195616;28;20514;-66
2021/08/20 09:18:22;;;;;;;14.95;8.55;;;;;;;16.09;87.25;101411.69;10196073;28;20049;-67
2021/08/20 09:23:24;;;;;;;11.13;9.55;;;;;;;16.05;87.23;101421.78;10179796;28;20413;-66
2021/08/20 09:28:34;;;;;;;13.38;9.13;;;;;;;16.02;86.87;101411.44;10195146;28;20066;-66
2021/08/20 09:33:31;;;;;;;15.20;10.63;;;;;;;16.24;87.23;101401.16;10175799;28;20052;-66
2021/08/20 09:38:30;;;;;;;15.43;11.98;;;;;;;16.49;87.51;101402.84;10190661;28;20046;-66
2021/08/20 09:43:32;;;;;;;17.75;12.30;;;;;;;16.58;86.83;101395.28;10178646;28;20046;-65
2021/08/20 09:48:39;;;;;;;18.55;11.48;;;;;;;16.65;86.02;101400.25;10170581;28;20045;-64
2021/08/20 09:53:36;;;;;;;21.67;13.52;;;;;;;16.72;86.01;101394.16;10170968;28;20638;-66
2021/08/20 09:58:34;;;;;;;19.27;11.73;;;;;;;16.74;85.86;101397.38;10157863;28;20069;-65
2021/08/20 10:03:34;;;;;;;18.75;12.27;;;;;;;16.67;85.75;101402.66;10193392;28;20069;-65
2021/08/20 10:08:32;;;;;;;22.40;12.23;;;;;;;16.57;86.13;101399.19;10171540;28;20482;-66
2021/08/20 10:13:30;;;;;;;19.20;13.63;;;;;;;16.36;86.98;101402.03;10184982;28;20042;-66
2021/08/20 10:18:30;;;;;;;22.33;14.43;;;;;;;16.28;88.10;101385.56;10195271;28;20084;-68
2021/08/20 10:23:27;;;;;;;25.52;15.00;;;;;;;16.19;88.65;101378.16;10176533;28;20050;-68
2021/08/20 10:28:24;;;;;;;25.33;16.17;;;;;;;16.06;89.61;101373.75;10177740;28;20057;-67
2021/08/20 10:33:36;;;;;;;20.98;14.35;;;;;;;15.97;91.96;101408.88;10179718;28;20572;-68
2021/08/20 10:38:39;;;;;;;17.73;12.35;;;;;;;16.23;92.03;101418.88;10191843;28;20050;-68
2021/08/20 10:43:48;;;;;;;16.20;11.57;;;;;;;16.61;90.21;101415.88;10172819;28;20073;-68
2021/08/20 10:48:44;;;;;;;17.83;10.73;;;;;;;17.48;89.87;101420.31;10188534;28;20080;-68
2021/08/20 10:53:48;;;;;;;14.50;11.20;;;;;;;17.83;84.80;101409.56;10202566;28;20042;-67
2021/08/20 10:58:44;;;;;;;14.50;10.65;;;;;;;18.06;84.41;101406.25;10169503;28;20054;-68
2021/08/20 11:03:42;;;;;;;14.65;10.90;;;;;;;17.74;84.45;101406.09;10170199;28;20133;-68
2021/08/20 11:08:39;;;;;;;16.60;12.32;;;;;;;17.60;85.32;101411.19;10176639;28;20077;-66
2021/08/20 11:13:36;;;;;;;18.73;13.40;;;;;;;17.80;85.13;101406.63;10200487;28;20096;-67
2021/08/20 11:18:39;;;;;;;15.70;10.85;;;;;;;19.31;83.80;101403.16;10201624;28;20519;-67
2021/08/20 11:23:35;;;;;;;;;;;;;;;19.11;78.25;101410.59;10186539;28;20073;-66
2021/08/20 11:28:41;;;;;;;14.65;8.07;;;;;;;18.63;76.81;101407.78;10200887;28;20303;-66
2021/08/20 11:33:57;;;;;;;9.25;7.03;;;;;;;18.79;74.99;101404.25;10183413;28;20068;-65
2021/08/20 11:38:59;;;;;;;12.80;5.97;;;;;;;19.57;72.59;101399.75;10200798;28;20073;-67
2021/08/20 11:44:01;;;;;;;8.37;5.67;;;;;;;19.71;70.04;101400.09;10168751;28;20125;-67
2021/08/20 11:48:58;;;;;;;9.68;5.72;;;;;;;19.02;71.72;101401.66;10187572;28;20053;-67
2021/08/20 11:53:59;;;;;;;10.85;6.32;;;;;;;18.56;72.66;101410.38;10199596;28;20092;-67
2021/08/20 11:58:56;;;;;;;11.02;7.10;;;;;;;18.15;74.87;101415.22;10181882;28;20050;-67
2021/08/20 12:03:57;;;;;;;9.02;6.68;;;;;;;17.68;77.59;101443.44;10199379;28;20058;-67
2021/08/20 12:08:57;;;;;;;10.13;6.90;;;;;;;17.59;79.30;101437.22;10171382;28;20077;-66
2021/08/20 12:13:55;;;;;;;13.32;7.10;;;;;;;17.62;79.20;101436.53;10199184;28;20045;-67
2021/08/20 12:18:52;;;;;;;10.90;6.70;;;;;;;17.84;78.66;101438.81;10165852;28;20108;-67
2021/08/20 12:23:59;;;;;;;9.88;5.57;;;;;;;17.92;76.72;101450.13;10198628;28;20077;-67
2021/08/20 12:28:56;;;;;;;7.10;4.97;;;;;;;17.99;75.33;101458.63;10159495;28;20077;-67
2021/08/20 12:34:00;;;;;;;6.82;4.10;;;;;;;18.09;74.63;101455.34;10184951;28;20081;-67
2021/08/20 12:39:07;;;;;;;8.27;4.30;;;;;;;18.20;75.48;101450.94;10198815;28;20054;-67
2021/08/20 12:44:06;;;;;;;7.43;4.15;;;;;;;18.44;74.25;101449.22;10171715;28;20551;-66
2021/08/20 12:49:05;;;;;;;6.85;3.55;;;;;;;18.43;73.54;101447.63;10198354;28;20081;-67
2021/08/20 12:54:11;;;;;;;6.97;4.13;;;;;;;18.46;73.65;101455.19;10165669;28;20041;-67
2021/08/20 12:59:10;;;;;;;7.60;3.92;;;;;;;18.54;73.24;101448.69;10193731;28;20038;-67
2021/08/20 13:04:07;;;;;;;7.50;3.97;;;;;;;18.58;72.56;101455.13;10193971;28;20096;-66
2021/08/20 13:09:03;;;;;;;5.68;3.33;;;;;;;18.87;72.25;101461.47;10177558;28;20084;-67
2021/08/20 13:14:20;;;;;;;7.50;3.60;;;;;;;18.64;72.21;101453.72;10194390;28;20547;-67
2021/08/20 13:19:17;;;;;;;6.78;3.60;;;;;;;18.65;71.72;101454.53;10168417;28;20066;-67
2021/08/20 13:24:13;;;;;;;31.40;8.10;;;;;;;18.52;72.85;101456.56;10191502;28;20046;-66
2021/08/20 13:29:10;;;;;;;8.20;3.95;;;;;;;18.46;73.64;101463.50;10168703;28;20420;-65
2021/08/20 13:34:07;;;;;;;7.47;4.22;;;;;;;18.24;74.64;101474.00;10185718;28;20140;-65
2021/08/20 13:39:03;;;;;;;8.77;4.32;;;;;;;18.26;75.42;101477.22;10188875;28;20081;-66
2021/08/20 13:44:00;;;;;;;6.53;4.15;;;;;;;18.21;76.66;101473.88;10190412;28;20096;-65
2021/08/20 13:48:57;;;;;;;8.57;4.07;;;;;;;18.01;76.60;101481.19;10196869;28;20048;-65
2021/08/20 13:53:54;;;;;;;7.13;3.78;;;;;;;18.00;77.04;101482.34;10190336;28;20056;-65
2021/08/20 13:58:55;;;;;;;7.60;4.00;;;;;;;17.92;77.33;101478.56;10176039;28;20097;-65
2021/08/20 14:03:52;;;;;;;5.05;2.75;;;;;;;17.97;77.35;101480.31;10182513;28;20637;-66
2021/08/20 14:08:48;;;;;;;5.82;2.90;;;;;;;18.01;76.73;101481.19;10191822;28;20057;-65
2021/08/20 14:13:46;;;;;;;5.25;2.60;;;;;;;18.07;76.70;101482.56;10193550;28;20088;-66
2021/08/20 14:18:42;;;;;;;6.75;2.70;;;;;;;18.07;74.35;101485.34;10196210;28;20069;-65
2021/08/20 14:23:39;;;;;;;4.45;2.20;;;;;;;18.06;73.39;101492.03;10186812;28;20107;-65
2021/08/20 14:28:36;;;;;;;6.85;1.98;;;;;;;18.04;72.70;101497.09;10178411;28;20042;-64
2021/08/20 14:33:32;;;;;;;6.75;2.10;;;;;;;18.05;71.79;101507.00;10183822;28;20416;-65
2021/08/20 14:38:29;;;;;;;4.90;2.00;;;;;;;18.04;71.14;101510.94;10190679;28;20653;-65
2021/08/20 14:43:26;;;;;;;3.85;1.80;;;;;;;18.07;70.46;101515.78;10172719;28;20045;-66
2021/08/20 14:48:22;;;;;;;4.43;1.90;;;;;;;18.20;70.58;101511.81;10184019;28;20073;-66
2021/08/20 14:53:19;;;;;;;4.18;2.00;;;;;;;18.40;69.58;101526.63;10195055;28;20064;-65
2021/08/20 14:58:17;;;;;;;4.15;1.70;;;;;;;18.74;68.96;101518.06;10187878;28;20463;-65
2021/08/20 15:03:14;;;;;;;5.28;1.70;;;;;;;19.11;67.63;101504.81;10194432;28;20113;-65
2021/08/20 15:08:14;;;;;;;6.30;1.83;;;;;;;19.28;65.78;101514.75;10172539;28;20803;-65
2021/08/20 15:13:14;;;;;;;3.90;1.67;;;;;;;19.04;64.88;101513.75;10189160;28;20038;-64
2021/08/20 15:18:11;;;;;;;4.97;2.00;;;;;;;19.07;65.19;101506.69;10198748;28;20045;-65
2021/08/20 15:23:11;;;;;;;4.25;1.60;;;;;;;18.96;64.73;101514.75;10196449;28;20434;-66
2021/08/20 15:28:08;;;;;;;4.70;2.42;;;;;;;18.82;66.10;101519.88;10202168;28;20405;-65
2021/08/20 15:33:05;;;;;;;5.18;2.05;;;;;;;18.72;65.85;101526.72;10191662;28;20073;-65
2021/08/20 15:38:02;;;;;;;6.43;3.13;;;;;;;18.70;66.83;101523.50;10200966;28;20049;-65
2021/08/20 15:43:00;;;;;;;5.78;2.38;;;;;;;18.81;66.19;101529.38;10188875;28;20124;-65
2021/08/20 15:47:56;;;;;;;4.50;2.10;;;;;;;18.86;65.11;101529.09;10200555;28;20594;-65
2021/08/20 15:52:53;;;;;;;4.03;1.77;;;;;;;19.10;66.35;101525.41;10185134;28;20507;-65
2021/08/20 15:57:50;;;;;;;4.88;2.38;;;;;;;19.24;64.83;101536.03;10200024;28;20129;-65
2021/08/20 16:02:47;;;;;;;4.40;1.88;;;;;;;19.38;62.97;101530.88;10182910;28;20046;-65
2021/08/20 16:07:43;;;;;;;5.55;2.45;;;;;;;19.27;62.70;101536.13;10199313;28;20100;-65
2021/08/20 16:12:40;;;;;;;4.47;1.88;;;;;;;19.63;62.36;101530.66;10181061;28;20046;-65
2021/08/20 16:17:37;;;;;;;5.82;2.15;;;;;;;19.44;63.26;101540.50;10198811;28;20111;-65
2021/08/20 16:22:34;;;;;;;5.72;2.30;;;;;;;19.62;64.08;101534.59;10169409;28;20082;-65
2021/08/20 16:27:31;;;;;;;5.25;2.13;;;;;;;20.07;62.99;101536.03;10189765;28;20093;-66
2021/08/20 16:32:28;;;;;;;6.82;2.67;;;;;;;20.36;61.36;101529.94;10195745;28;20088;-65
2021/08/20 16:37:24;;;;;;;6.43;2.72;;;;;;;21.19;59.23;101526.78;10174076;28;20046;-65
2021/08/20 16:42:20;;;;;;;6.70;3.45;;;;;;;22.03;57.42;101524.91;10192559;28;20077;-65
2021/08/20 16:47:17;;;;;;;4.38;2.60;;;;;;;22.74;53.45;101529.75;10197005;28;20068;-66
2021/08/20 16:52:13;;;;;;;5.60;2.22;;;;;;;23.47;51.65;101520.91;10198390;28;20424;-66
2021/08/20 16:57:10;;;;;;;6.70;3.50;;;;;;;23.86;49.47;101526.00;10192527;28;20384;-66
2021/08/20 17:02:06;;;;;;;4.85;2.47;;;;;;;23.88;47.91;101523.59;10198395;28;20143;-66
2021/08/20 17:07:03;;;;;;;5.57;2.90;;;;;;;22.82;49.38;101541.81;10190146;28;20570;-66
2021/08/20 17:12:00;;;;;;;4.57;2.08;;;;;;;22.02;51.37;101542.81;10164659;28;20081;-66
2021/08/20 17:16:56;;;;;;;4.55;2.13;;;;;;;21.44;53.84;101543.09;10188778;28;20074;-66
2021/08/20 17:21:53;;;;;;;5.65;2.25;;;;;;;20.97;55.06;101558.13;10180583;28;20069;-66
2021/08/20 17:26:50;;;;;;;5.93;2.20;;;;;;;20.64;56.23;101562.28;10187219;28;20042;-66
2021/08/20 17:31:46;;;;;;;5.40;3.40;;;;;;;20.16;57.12;101564.41;10196403;28;20073;-66
2021/08/20 17:36:43;;;;;;;6.88;3.95;;;;;;;19.89;58.19;101561.44;10190439;28;20128;-66
2021/08/20 17:41:40;;;;;;;10.20;5.47;;;;;;;19.78;58.72;101563.16;10156723;28;20097;-66
2021/08/20 17:46:37;;;;;;;3.67;1.60;;;;;;;19.55;59.22;101562.97;10179103;28;20527;-66
2021/08/20 17:51:34;;;;;;;5.25;2.17;;;;;;;19.45;60.04;101572.63;10174300;28;20135;-65
2021/08/20 17:56:30;;;;;;;6.50;2.60;;;;;;;19.30;60.71;101578.97;10180367;28;20073;-65
2021/08/20 18:01:27;;;;;;;7.00;2.40;;;;;;;19.07;60.43;101581.53;10156248;28;20469;-65
2021/08/20 18:06:23;;;;;;;6.22;3.65;;;;;;;18.97;60.89;101591.16;10182410;28;20073;-65
2021/08/20 18:11:20;;;;;;;4.68;1.85;;;;;;;18.83;61.67;101582.47;10187622;28;20070;-66
2021/08/20 18:16:16;;;;;;;3.88;1.92;;;;;;;18.65;62.82;101604.88;10181216;28;20076;-65
2021/08/20 18:21:13;;;;;;;4.40;2.42;;;;;;;18.58;63.39;101610.22;10168927;28;20050;-65
2021/08/20 18:26:11;;;;;;;5.65;3.10;;;;;;;18.48;63.83;101607.94;10163122;28;20495;-66
2021/08/20 18:31:08;;;;;;;13.38;7.32;;;;;;;18.38;64.62;101605.66;10177728;28;20105;-66
2021/08/20 18:36:05;;;;;;;11.63;4.45;;;;;;;18.30;65.62;101610.97;10194868;28;20515;-66
2021/08/20 18:41:03;;;;;;;6.22;3.20;;;;;;;18.23;65.68;101616.28;10166331;28;20096;-65
2021/08/20 18:46:00;;;;;;;8.10;3.80;;;;;;;18.12;66.34;101625.41;10194014;28;20096;-66
2021/08/20 18:50:56;;;;;;;9.05;4.07;;;;;;;17.95;67.75;101626.47;10196606;28;20077;-66
2021/08/20 18:55:53;;;;;;;7.38;4.28;;;;;;;17.88;68.18;101632.56;10189185;28;20061;-66
2021/08/20 19:00:49;;;;;;;8.90;5.18;;;;;;;17.79;68.69;101634.63;10202653;28;20058;-65
2021/08/20 19:05:47;;;;;;;13.45;4.40;;;;;;;17.68;69.54;101645.31;10180884;28;20053;-65
2021/08/20 19:10:45;;;;;;;9.27;4.28;;;;;;;17.59;69.86;101655.66;10202768;28;20112;-65
2021/08/20 19:15:42;;;;;;;10.02;4.10;;;;;;;17.54;70.41;101655.91;10194039;28;20471;-65
2021/08/20 19:20:38;;;;;;;8.43;3.97;;;;;;;17.43;71.25;101659.09;10200896;28;20053;-65
2021/08/20 19:25:35;;;;;;;7.03;4.70;;;;;;;17.34;71.32;101668.66;10201566;28;20129;-66
2021/08/20 19:30:31;;;;;;;7.47;3.45;;;;;;;17.21;71.91;101676.06;10180708;28;20085;-65
2021/08/20 19:35:28;;;;;;;5.15;2.78;;;;;;;17.12;72.50;101678.09;10197094;28;20077;-65
2021/08/20 19:40:24;;;;;;;10.43;2.42;;;;;;;17.04;73.08;101679.81;10200038;28;20062;-66
2021/08/20 19:45:21;;;;;;;5.43;2.42;;;;;;;17.04;73.03;101683.38;10200359;28;20100;-65
2021/08/20 19:50:18;;;;;;;6.63;2.80;;;;;;;16.99;73.41;101691.88;10200456;28;20459;-65
2021/08/20 19:55:15;;;;;;;8.35;4.18;;;;;;;16.89;73.58;101695.03;10198976;28;20049;-65
2021/08/20 20:00:12;;;;;;;14.13;7.95;;;;;;;16.77;73.89;101698.50;10191033;28;20074;-65
2021/08/20 20:05:10;;;;;;;9.90;6.07;;;;;;;16.76;74.06;101704.38;10182237;28;20050;-65
2021/08/20 20:10:07;;;;;;;14.85;6.18;;;;;;;16.69;74.28;101701.34;10188780;28;20084;-65
2021/08/20 20:15:07;;;;;;;13.43;7.40;;;;;;;16.63;74.34;101701.53;10198048;28;20099;-66
2021/08/20 20:20:06;;;;;;;13.43;7.43;;;;;;;16.48;74.69;101704.09;10197207;28;20436;-65
2021/08/20 20:25:03;;;;;;;12.32;6.70;;;;;;;16.40;75.35;101702.97;10175764;28;20119;-65
2021/08/20 20:30:00;;;;;;;7.60;3.53;;;;;;;16.38;75.44;101710.78;10181923;28;20054;-65
2021/08/20 20:34:56;;;;;;;6.50;2.58;;;;;;;16.31;75.69;101716.00;10182958;28;20065;-65
2021/08/20 20:39:53;;;;;;;6.75;2.42;;;;;;;16.28;75.90;101717.47;10192426;28;20066;-65
2021/08/20 20:44:49;;;;;;;7.30;4.32;;;;;;;16.27;75.79;101715.03;10198225;28;20542;-65
2021/08/20 20:49:47;;;;;;;6.07;3.90;;;;;;;16.15;76.34;101719.34;10183062;28;20774;-65
2021/08/20 20:54:44;;;;;;;7.63;4.60;;;;;;;16.02;76.74;101725.88;10184623;28;20043;-65
2021/08/20 20:59:40;;;;;;;8.75;3.70;;;;;;;15.98;77.29;101725.72;10176509;28;20080;-65
2021/08/20 21:04:37;;;;;;;7.65;3.58;;;;;;;15.91;77.51;101724.63;10184646;28;20042;-65
2021/08/20 21:09:34;;;;;;;9.63;5.10;;;;;;;15.86;77.90;101738.59;10197903;28;20042;-65
2021/08/20 21:14:31;;;;;;;6.78;3.65;;;;;;;15.78;78.33;101735.53;10170294;28;20111;-65
2021/08/20 21:19:27;;;;;;;7.82;3.92;;;;;;;15.73;78.74;101741.22;10197370;28;20570;-65
2021/08/20 21:24:23;;;;;;;22.65;8.25;;;;;;;15.77;78.64;101747.69;10169256;28;20577;-65
2021/08/20 21:29:20;;;;;;;9.80;5.35;;;;;;;15.77;78.90;101747.69;10194331;28;20104;-65
2021/08/20 21:34:17;;;;;;;8.23;4.57;;;;;;;15.76;78.64;101748.84;10167024;28;20128;-65
2021/08/20 21:39:13;;;;;;;6.53;3.47;;;;;;;15.72;78.84;101747.06;10195537;28;20077;-65
2021/08/20 21:44:10;;;;;;;8.60;3.70;;;;;;;15.71;78.92;101749.00;10196193;28;20045;-65
2021/08/20 21:49:06;;;;;;;7.43;3.90;;;;;;;15.66;79.08;101745.56;10195605;28;20487;-65
2021/08/20 21:54:03;;;;;;;10.23;4.10;;;;;;;15.57;79.61;101745.56;10195867;28;20073;-65
2021/08/20 21:58:59;;;;;;;6.25;3.47;;;;;;;15.51;79.63;101749.66;10165151;28;20041;-65
2021/08/20 22:03:56;;;;;;;5.43;3.50;;;;;;;15.45;79.89;101756.47;10195369;28;20042;-65
2021/08/20 22:08:52;;;;;;;8.73;3.95;;;;;;;15.43;79.82;101753.22;10156404;28;20097;-65
2021/08/20 22:13:49;;;;;;;10.73;3.67;;;;;;;15.37;80.17;101755.34;10162082;28;20100;-65
2021/08/20 22:18:45;;;;;;;7.68;3.72;;;;;;;15.34;80.08;101773.34;10196180;28;20435;-65
2021/08/20 22:23:42;;;;;;;7.90;3.90;;;;;;;15.31;80.16;101770.41;10155440;28;20043;-65
2021/08/20 22:28:39;;;;;;;11.48;3.72;;;;;;;15.21;80.08;101771.53;10194251;28;20045;-65
2021/08/20 22:33:36;;;;;;;8.30;4.63;;;;;;;15.15;79.89;101767.31;10194015;28;20415;-65
2021/08/20 22:38:33;;;;;;;9.50;4.43;;;;;;;15.08;80.74;101769.75;10192078;28;20081;-66
2021/08/20 22:43:29;;;;;;;8.85;4.85;;;;;;;14.96;80.40;101766.81;10190774;28;20066;-65